sensor_id;sensor_type;location;lat;lon;timestamp;P1;P2;P0
35654;PMS1003;21773;50.010;19.972;2022-09-09T00:01:32;43.40;37.40;31.00
35654;PMS1003;21773;50.010;19.972;2022-09-09T00:04:47;39.50;35.00;29.00
35654;PMS1003;21773;50.010;19.972;2022-09-09T00:08:01;34.50;32.25;27.25
35654;PMS1003;21773;50.010;19.972;2022-09-09T00:11:08;32.00;30.00;25.67
35654;PMS1003;21773;50.010;19.972;2022-09-09T00:14:18;29.80;29.00;24.60
35654;PMS1003;21773;50.010;19.972;2022-09-09T00:17:31;29.50;28.75;24.75
35654;PMS1003;21773;50.010;19.972;2022-09-09T00:20:43;47.00;40.00;33.00
35654;PMS1003;21773;50.010;19.972;2022-09-09T00:23:53;31.00;30.00;25.80
35654;PMS1003;21773;50.010;19.972;2022-09-09T00:27:00;33.50;32.00;27.00
35654;PMS1003;21773;50.010;19.972;2022-09-09T00:30:13;24.75;23.75;21.75
35654;PMS1003;21773;50.010;19.972;2022-09-09T00:33:22;32.60;31.00;26.40
35654;PMS1003;21773;50.010;19.972;2022-09-09T00:36:26;34.80;32.60;27.60
35654;PMS1003;21773;50.010;19.972;2022-09-09T00:39:32;37.00;33.00;28.00
35654;PMS1003;21773;50.010;19.972;2022-09-09T00:42:42;30.80;29.40;25.40
35654;PMS1003;21773;50.010;19.972;2022-09-09T00:45:58;16.60;16.60;15.80
35654;PMS1003;21773;50.010;19.972;2022-09-09T00:49:22;32.60;31.40;26.60
35654;PMS1003;21773;50.010;19.972;2022-09-09T00:52:36;21.75;21.50;19.75
35654;PMS1003;21773;50.010;19.972;2022-09-09T00:55:48;53.60;45.20;38.20
35654;PMS1003;21773;50.010;19.972;2022-09-09T00:59:02;32.60;31.60;26.80
35654;PMS1003;21773;50.010;19.972;2022-09-09T01:02:24;33.75;32.00;27.00
35654;PMS1003;21773;50.010;19.972;2022-09-09T01:05:33;54.50;45.50;38.75
35654;PMS1003;21773;50.010;19.972;2022-09-09T01:08:59;39.60;35.20;29.20
35654;PMS1003;21773;50.010;19.972;2022-09-09T01:12:15;30.00;27.50;23.50
35654;PMS1003;21773;50.010;19.972;2022-09-09T01:15:26;35.80;33.00;28.00
35654;PMS1003;21773;50.010;19.972;2022-09-09T01:18:34;34.20;32.40;27.40
35654;PMS1003;21773;50.010;19.972;2022-09-09T01:21:42;43.60;37.40;31.00
35654;PMS1003;21773;50.010;19.972;2022-09-09T01:25:01;45.00;37.60;31.00
35654;PMS1003;21773;50.010;19.972;2022-09-09T01:28:35;25.80;24.40;21.80
35654;PMS1003;21773;50.010;19.972;2022-09-09T01:31:52;50.75;42.75;35.00
35654;PMS1003;21773;50.010;19.972;2022-09-09T01:34:57;35.60;33.00;27.80
35654;PMS1003;21773;50.010;19.972;2022-09-09T01:38:01;44.60;38.60;31.60
35654;PMS1003;21773;50.010;19.972;2022-09-09T01:41:05;28.40;27.60;24.00
35654;PMS1003;21773;50.010;19.972;2022-09-09T01:44:24;35.25;33.00;28.00
35654;PMS1003;21773;50.010;19.972;2022-09-09T01:47:30;37.80;34.20;28.60
35654;PMS1003;21773;50.010;19.972;2022-09-09T01:50:58;54.00;45.25;38.50
35654;PMS1003;21773;50.010;19.972;2022-09-09T01:54:01;37.40;33.00;28.00
35654;PMS1003;21773;50.010;19.972;2022-09-09T01:57:08;45.20;39.40;32.20
35654;PMS1003;21773;50.010;19.972;2022-09-09T02:00:22;24.20;23.80;22.20
35654;PMS1003;21773;50.010;19.972;2022-09-09T02:03:31;35.00;33.00;28.00
35654;PMS1003;21773;50.010;19.972;2022-09-09T02:06:52;44.75;38.00;31.75
35654;PMS1003;21773;50.010;19.972;2022-09-09T02:10:02;46.33;40.00;32.67
35654;PMS1003;21773;50.010;19.972;2022-09-09T02:13:18;24.50;24.50;22.00
35654;PMS1003;21773;50.010;19.972;2022-09-09T02:16:27;41.40;36.20;30.40
35654;PMS1003;21773;50.010;19.972;2022-09-09T02:19:36;40.40;35.20;29.20
35654;PMS1003;21773;50.010;19.972;2022-09-09T02:22:55;36.20;33.20;28.00
35654;PMS1003;21773;50.010;19.972;2022-09-09T02:26:00;11.75;10.75;9.75
35654;PMS1003;21773;50.010;19.972;2022-09-09T02:29:08;33.50;31.50;26.75
35654;PMS1003;21773;50.010;19.972;2022-09-09T02:32:18;45.40;39.20;32.20
35654;PMS1003;21773;50.010;19.972;2022-09-09T02:35:28;49.60;42.60;34.00
35654;PMS1003;21773;50.010;19.972;2022-09-09T02:38:35;39.00;35.00;29.00
35654;PMS1003;21773;50.010;19.972;2022-09-09T02:41:47;20.75;19.75;18.75
35654;PMS1003;21773;50.010;19.972;2022-09-09T02:44:50;32.40;30.40;26.00
35654;PMS1003;21773;50.010;19.972;2022-09-09T02:47:55;27.20;25.20;22.80
35654;PMS1003;21773;50.010;19.972;2022-09-09T02:51:08;29.00;29.00;25.00
35654;PMS1003;21773;50.010;19.972;2022-09-09T02:54:20;6.50;6.25;5.75
35654;PMS1003;21773;50.010;19.972;2022-09-09T02:57:35;40.00;35.00;29.50
35654;PMS1003;21773;50.010;19.972;2022-09-09T03:00:41;41.20;36.20;29.80
35654;PMS1003;21773;50.010;19.972;2022-09-09T03:03:45;34.20;31.60;26.60
35654;PMS1003;21773;50.010;19.972;2022-09-09T03:06:51;40.67;35.67;30.00
35654;PMS1003;21773;50.010;19.972;2022-09-09T03:09:55;15.75;14.50;14.25
35654;PMS1003;21773;50.010;19.972;2022-09-09T03:13:01;37.00;34.00;28.00
35654;PMS1003;21773;50.010;19.972;2022-09-09T03:16:09;31.75;30.50;26.00
35654;PMS1003;21773;50.010;19.972;2022-09-09T03:19:19;31.00;28.40;24.00
35654;PMS1003;21773;50.010;19.972;2022-09-09T03:22:24;49.00;42.00;34.00
35654;PMS1003;21773;50.010;19.972;2022-09-09T03:25:29;20.00;19.40;17.80
35654;PMS1003;21773;50.010;19.972;2022-09-09T03:28:36;32.20;30.80;26.40
35654;PMS1003;21773;50.010;19.972;2022-09-09T03:31:40;25.00;25.00;22.40
35654;PMS1003;21773;50.010;19.972;2022-09-09T03:34:45;28.20;28.20;24.00
35654;PMS1003;21773;50.010;19.972;2022-09-09T03:37:51;35.00;33.00;28.00
35654;PMS1003;21773;50.010;19.972;2022-09-09T03:40:56;32.50;31.00;26.00
35654;PMS1003;21773;50.010;19.972;2022-09-09T03:44:00;33.75;32.00;27.00
35654;PMS1003;21773;50.010;19.972;2022-09-09T03:47:10;37.00;33.60;28.00
35654;PMS1003;21773;50.010;19.972;2022-09-09T03:50:15;34.50;32.50;27.75
35654;PMS1003;21773;50.010;19.972;2022-09-09T03:53:22;36.80;33.20;28.00
35654;PMS1003;21773;50.010;19.972;2022-09-09T03:56:27;33.00;32.00;27.00
35654;PMS1003;21773;50.010;19.972;2022-09-09T03:59:31;41.20;36.20;30.40
35654;PMS1003;21773;50.010;19.972;2022-09-09T04:02:34;35.00;32.80;27.80
35654;PMS1003;21773;50.010;19.972;2022-09-09T04:05:40;40.00;35.60;29.40
35654;PMS1003;21773;50.010;19.972;2022-09-09T04:08:44;45.00;39.00;32.00
35654;PMS1003;21773;50.010;19.972;2022-09-09T04:11:50;39.25;35.25;29.25
35654;PMS1003;21773;50.010;19.972;2022-09-09T04:14:54;46.50;40.25;32.75
35654;PMS1003;21773;50.010;19.972;2022-09-09T04:17:59;36.60;33.60;28.00
35654;PMS1003;21773;50.010;19.972;2022-09-09T04:21:04;43.00;37.40;31.20
35654;PMS1003;21773;50.010;19.972;2022-09-09T04:24:09;42.20;36.80;30.40
35654;PMS1003;21773;50.010;19.972;2022-09-09T04:27:13;41.60;36.20;30.20
35654;PMS1003;21773;50.010;19.972;2022-09-09T04:30:16;35.80;32.80;27.80
35654;PMS1003;21773;50.010;19.972;2022-09-09T04:33:20;39.00;34.50;29.25
35654;PMS1003;21773;50.010;19.972;2022-09-09T04:36:26;46.00;39.80;32.20
35654;PMS1003;21773;50.010;19.972;2022-09-09T04:39:33;38.00;34.75;29.00
35654;PMS1003;21773;50.010;19.972;2022-09-09T04:42:38;38.50;35.00;29.00
35654;PMS1003;21773;50.010;19.972;2022-09-09T04:45:49;39.00;35.00;29.00
35654;PMS1003;21773;50.010;19.972;2022-09-09T04:48:56;41.00;36.00;30.00
35654;PMS1003;21773;50.010;19.972;2022-09-09T04:52:06;39.00;35.00;29.00
35654;PMS1003;21773;50.010;19.972;2022-09-09T04:55:10;40.50;36.00;30.00
35654;PMS1003;21773;50.010;19.972;2022-09-09T04:58:18;46.00;39.80;32.60
35654;PMS1003;21773;50.010;19.972;2022-09-09T05:01:24;37.20;33.40;28.40
35654;PMS1003;21773;50.010;19.972;2022-09-09T05:04:34;37.50;32.75;27.75
35654;PMS1003;21773;50.010;19.972;2022-09-09T05:07:39;36.60;33.20;28.00
35654;PMS1003;21773;50.010;19.972;2022-09-09T05:10:43;33.60;32.00;27.00
35654;PMS1003;21773;50.010;19.972;2022-09-09T05:13:46;9.20;8.60;7.40
35654;PMS1003;21773;50.010;19.972;2022-09-09T05:16:52;30.50;30.00;26.00
35654;PMS1003;21773;50.010;19.972;2022-09-09T05:19:57;31.60;30.60;26.40
35654;PMS1003;21773;50.010;19.972;2022-09-09T05:23:01;38.25;34.75;29.00
35654;PMS1003;21773;50.010;19.972;2022-09-09T05:26:08;35.00;32.40;27.40
35654;PMS1003;21773;50.010;19.972;2022-09-09T05:29:20;10.20;9.60;8.60
35654;PMS1003;21773;50.010;19.972;2022-09-09T05:32:23;21.60;21.00;20.20
35654;PMS1003;21773;50.010;19.972;2022-09-09T05:35:27;51.20;43.20;36.20
35654;PMS1003;21773;50.010;19.972;2022-09-09T05:38:33;39.00;34.40;28.40
35654;PMS1003;21773;50.010;19.972;2022-09-09T05:41:38;41.25;36.00;30.00
35654;PMS1003;21773;50.010;19.972;2022-09-09T05:44:42;50.25;43.00;34.75
35654;PMS1003;21773;50.010;19.972;2022-09-09T05:47:51;35.75;32.75;27.75
35654;PMS1003;21773;50.010;19.972;2022-09-09T05:50:55;42.80;37.40;31.40
35654;PMS1003;21773;50.010;19.972;2022-09-09T05:54:01;32.25;30.50;25.25
35654;PMS1003;21773;50.010;19.972;2022-09-09T05:57:08;36.25;33.00;28.00
35654;PMS1003;21773;50.010;19.972;2022-09-09T06:00:12;49.75;42.00;34.00
35654;PMS1003;21773;50.010;19.972;2022-09-09T06:03:19;14.75;14.50;13.50
35654;PMS1003;21773;50.010;19.972;2022-09-09T06:06:26;28.40;27.60;24.00
35654;PMS1003;21773;50.010;19.972;2022-09-09T06:09:35;41.20;36.20;30.40
35654;PMS1003;21773;50.010;19.972;2022-09-09T06:12:41;26.80;26.80;23.40
35654;PMS1003;21773;50.010;19.972;2022-09-09T06:15:48;15.60;15.60;14.80
35654;PMS1003;21773;50.010;19.972;2022-09-09T06:18:54;34.40;32.20;27.20
35654;PMS1003;21773;50.010;19.972;2022-09-09T06:22:00;30.00;28.00;24.00
35654;PMS1003;21773;50.010;19.972;2022-09-09T06:25:09;45.40;39.20;32.20
35654;PMS1003;21773;50.010;19.972;2022-09-09T06:28:13;30.60;29.60;25.20
35654;PMS1003;21773;50.010;19.972;2022-09-09T06:31:17;28.80;28.20;24.00
35654;PMS1003;21773;50.010;19.972;2022-09-09T06:34:29;32.00;30.25;26.00
35654;PMS1003;21773;50.010;19.972;2022-09-09T06:37:33;34.40;32.40;27.40
35654;PMS1003;21773;50.010;19.972;2022-09-09T06:40:39;32.75;30.75;26.25
35654;PMS1003;21773;50.010;19.972;2022-09-09T06:43:43;36.25;33.25;28.00
35654;PMS1003;21773;50.010;19.972;2022-09-09T06:46:47;30.00;30.00;25.00
35654;PMS1003;21773;50.010;19.972;2022-09-09T06:49:52;11.50;10.00;9.50
35654;PMS1003;21773;50.010;19.972;2022-09-09T06:52:55;36.50;33.25;28.00
35654;PMS1003;21773;50.010;19.972;2022-09-09T06:56:01;34.00;31.75;26.75
35654;PMS1003;21773;50.010;19.972;2022-09-09T06:59:06;48.33;41.67;34.33
35654;PMS1003;21773;50.010;19.972;2022-09-09T07:02:11;32.00;30.80;26.40
35654;PMS1003;21773;50.010;19.972;2022-09-09T07:05:14;26.80;26.40;23.40
35654;PMS1003;21773;50.010;19.972;2022-09-09T07:08:20;23.80;23.80;21.40
35654;PMS1003;21773;50.010;19.972;2022-09-09T07:11:25;38.60;34.80;29.00
35654;PMS1003;21773;50.010;19.972;2022-09-09T07:14:31;43.60;37.80;31.40
35654;PMS1003;21773;50.010;19.972;2022-09-09T07:17:38;32.60;31.60;27.00
35654;PMS1003;21773;50.010;19.972;2022-09-09T07:20:41;35.75;33.00;28.00
35654;PMS1003;21773;50.010;19.972;2022-09-09T07:23:45;17.80;17.80;16.80
35654;PMS1003;21773;50.010;19.972;2022-09-09T07:26:50;23.20;23.20;21.20
35654;PMS1003;21773;50.010;19.972;2022-09-09T07:29:54;37.00;34.25;28.50
35654;PMS1003;21773;50.010;19.972;2022-09-09T07:32:59;43.40;37.40;31.00
35654;PMS1003;21773;50.010;19.972;2022-09-09T07:36:05;31.00;30.40;25.60
35654;PMS1003;21773;50.010;19.972;2022-09-09T07:39:14;26.60;26.00;23.00
35654;PMS1003;21773;50.010;19.972;2022-09-09T07:42:24;28.60;28.60;24.00
35654;PMS1003;21773;50.010;19.972;2022-09-09T07:45:28;27.00;27.00;24.00
35654;PMS1003;21773;50.010;19.972;2022-09-09T07:48:32;25.00;25.00;22.20
35654;PMS1003;21773;50.010;19.972;2022-09-09T07:51:37;29.75;29.00;25.00
35654;PMS1003;21773;50.010;19.972;2022-09-09T07:54:43;40.60;36.00;30.00
35654;PMS1003;21773;50.010;19.972;2022-09-09T07:57:49;40.00;36.00;30.00
35654;PMS1003;21773;50.010;19.972;2022-09-09T08:00:53;33.50;32.00;27.00
35654;PMS1003;21773;50.010;19.972;2022-09-09T08:03:57;16.40;16.00;15.80
35654;PMS1003;21773;50.010;19.972;2022-09-09T08:07:03;24.80;24.60;22.00
35654;PMS1003;21773;50.010;19.972;2022-09-09T08:10:14;24.40;24.00;22.00
35654;PMS1003;21773;50.010;19.972;2022-09-09T08:13:21;30.60;29.40;25.20
35654;PMS1003;21773;50.010;19.972;2022-09-09T08:16:27;24.60;24.00;22.00
35654;PMS1003;21773;50.010;19.972;2022-09-09T08:19:34;21.50;21.50;20.50
35654;PMS1003;21773;50.010;19.972;2022-09-09T08:22:43;17.00;17.00;17.00
35654;PMS1003;21773;50.010;19.972;2022-09-09T08:25:47;23.00;23.00;22.00
35654;PMS1003;21773;50.010;19.972;2022-09-09T08:28:55;22.20;22.20;21.20
35654;PMS1003;21773;50.010;19.972;2022-09-09T08:32:00;20.00;19.00;19.00
35654;PMS1003;21773;50.010;19.972;2022-09-09T08:35:05;25.00;25.00;22.60
35654;PMS1003;21773;50.010;19.972;2022-09-09T08:38:09;22.20;22.00;20.20
35654;PMS1003;21773;50.010;19.972;2022-09-09T08:41:27;18.75;18.75;18.00
35654;PMS1003;21773;50.010;19.972;2022-09-09T08:44:45;17.00;17.00;16.00
35654;PMS1003;21773;50.010;19.972;2022-09-09T08:48:10;24.50;24.00;22.00
35654;PMS1003;21773;50.010;19.972;2022-09-09T08:51:25;13.50;13.50;13.50
35654;PMS1003;21773;50.010;19.972;2022-09-09T08:54:33;12.00;12.00;12.00
35654;PMS1003;21773;50.010;19.972;2022-09-09T08:57:55;17.67;17.33;17.33
35654;PMS1003;21773;50.010;19.972;2022-09-09T09:01:16;7.20;7.20;6.40
35654;PMS1003;21773;50.010;19.972;2022-09-09T09:04:42;15.00;15.00;15.00
35654;PMS1003;21773;50.010;19.972;2022-09-09T09:07:59;15.75;15.50;15.50
35654;PMS1003;21773;50.010;19.972;2022-09-09T09:11:11;16.60;16.00;15.80
35654;PMS1003;21773;50.010;19.972;2022-09-09T09:14:16;26.50;26.50;23.50
35654;PMS1003;21773;50.010;19.972;2022-09-09T09:17:28;14.00;13.50;13.50
35654;PMS1003;21773;50.010;19.972;2022-09-09T09:20:42;18.40;18.00;17.80
35654;PMS1003;21773;50.010;19.972;2022-09-09T09:23:55;19.00;18.25;18.00
35654;PMS1003;21773;50.010;19.972;2022-09-09T09:27:09;21.50;20.50;20.00
35654;PMS1003;21773;50.010;19.972;2022-09-09T09:30:21;17.00;17.00;16.75
35654;PMS1003;21773;50.010;19.972;2022-09-09T09:33:44;14.00;14.00;13.00
35654;PMS1003;21773;50.010;19.972;2022-09-09T09:36:54;17.00;16.00;16.00
35654;PMS1003;21773;50.010;19.972;2022-09-09T09:40:10;25.25;25.25;23.00
35654;PMS1003;21773;50.010;19.972;2022-09-09T09:43:17;17.25;17.25;17.25
35654;PMS1003;21773;50.010;19.972;2022-09-09T09:46:23;14.20;14.20;14.20
35654;PMS1003;21773;50.010;19.972;2022-09-09T09:49:36;13.40;13.40;13.00
35654;PMS1003;21773;50.010;19.972;2022-09-09T09:52:40;17.60;17.60;17.60
35654;PMS1003;21773;50.010;19.972;2022-09-09T09:55:49;16.00;16.00;16.00
35654;PMS1003;21773;50.010;19.972;2022-09-09T09:58:57;15.40;15.40;15.00
35654;PMS1003;21773;50.010;19.972;2022-09-09T10:02:14;15.00;15.00;15.00
35654;PMS1003;21773;50.010;19.972;2022-09-09T10:05:25;14.50;14.50;14.00
35654;PMS1003;21773;50.010;19.972;2022-09-09T10:08:44;11.20;11.20;11.20
35654;PMS1003;21773;50.010;19.972;2022-09-09T10:11:51;11.60;11.60;11.20
35654;PMS1003;21773;50.010;19.972;2022-09-09T10:15:02;12.20;12.20;12.20
35654;PMS1003;21773;50.010;19.972;2022-09-09T10:18:19;16.00;16.00;16.00
35654;PMS1003;21773;50.010;19.972;2022-09-09T10:21:56;10.00;10.00;10.00
35654;PMS1003;21773;50.010;19.972;2022-09-09T10:25:14;14.60;14.60;14.00
35654;PMS1003;21773;50.010;19.972;2022-09-09T10:28:33;15.00;14.60;14.00
35654;PMS1003;21773;50.010;19.972;2022-09-09T10:31:51;13.75;13.00;13.00
35654;PMS1003;21773;50.010;19.972;2022-09-09T10:35:03;12.75;12.75;12.75
35654;PMS1003;21773;50.010;19.972;2022-09-09T10:38:15;13.00;13.00;13.00
35654;PMS1003;21773;50.010;19.972;2022-09-09T10:41:22;13.67;13.67;13.00
35654;PMS1003;21773;50.010;19.972;2022-09-09T10:44:53;13.00;12.00;12.00
35654;PMS1003;21773;50.010;19.972;2022-09-09T10:48:13;12.50;12.50;12.00
35654;PMS1003;21773;50.010;19.972;2022-09-09T10:51:33;9.00;9.00;9.00
35654;PMS1003;21773;50.010;19.972;2022-09-09T10:54:49;8.80;8.00;8.00
35654;PMS1003;21773;50.010;19.972;2022-09-09T10:58:00;10.60;10.00;9.00
35654;PMS1003;21773;50.010;19.972;2022-09-09T11:01:09;9.00;8.00;8.00
35654;PMS1003;21773;50.010;19.972;2022-09-09T11:04:19;8.20;8.20;8.20
35654;PMS1003;21773;50.010;19.972;2022-09-09T11:07:28;10.20;10.20;10.20
35654;PMS1003;21773;50.010;19.972;2022-09-09T11:10:39;9.25;9.25;9.00
35654;PMS1003;21773;50.010;19.972;2022-09-09T11:13:49;12.00;12.00;12.00
35654;PMS1003;21773;50.010;19.972;2022-09-09T11:16:59;9.20;9.20;8.80
35654;PMS1003;21773;50.010;19.972;2022-09-09T11:20:10;9.50;9.50;9.25
35654;PMS1003;21773;50.010;19.972;2022-09-09T11:23:15;7.60;7.60;7.00
35654;PMS1003;21773;50.010;19.972;2022-09-09T11:26:28;9.00;9.00;9.00
35654;PMS1003;21773;50.010;19.972;2022-09-09T11:29:48;7.00;7.00;7.00
35654;PMS1003;21773;50.010;19.972;2022-09-09T11:33:19;10.00;9.00;9.00
35654;PMS1003;21773;50.010;19.972;2022-09-09T11:36:43;8.33;8.33;8.00
35654;PMS1003;21773;50.010;19.972;2022-09-09T11:40:09;9.00;9.00;8.60
35654;PMS1003;21773;50.010;19.972;2022-09-09T11:43:21;8.00;7.75;7.75
35654;PMS1003;21773;50.010;19.972;2022-09-09T11:46:31;6.00;6.00;5.60
35654;PMS1003;21773;50.010;19.972;2022-09-09T11:49:39;8.00;8.00;8.00
35654;PMS1003;21773;50.010;19.972;2022-09-09T11:52:45;6.00;6.00;5.80
35654;PMS1003;21773;50.010;19.972;2022-09-09T11:56:00;7.75;6.75;6.75
35654;PMS1003;21773;50.010;19.972;2022-09-09T11:59:19;9.00;9.00;9.00
35654;PMS1003;21773;50.010;19.972;2022-09-09T12:02:25;7.00;7.00;7.00
35654;PMS1003;21773;50.010;19.972;2022-09-09T12:05:36;13.40;13.40;13.40
35654;PMS1003;21773;50.010;19.972;2022-09-09T12:08:44;17.00;17.00;17.00
35654;PMS1003;21773;50.010;19.972;2022-09-09T12:11:51;14.40;14.40;14.40
35654;PMS1003;21773;50.010;19.972;2022-09-09T12:15:00;16.00;16.00;15.40
35654;PMS1003;21773;50.010;19.972;2022-09-09T12:18:23;19.00;19.00;19.00
35654;PMS1003;21773;50.010;19.972;2022-09-09T12:21:30;14.25;14.00;14.00
35654;PMS1003;21773;50.010;19.972;2022-09-09T12:24:41;17.40;16.40;16.40
35654;PMS1003;21773;50.010;19.972;2022-09-09T12:27:55;15.60;15.60;15.00
35654;PMS1003;21773;50.010;19.972;2022-09-09T12:31:08;12.60;12.00;11.60
35654;PMS1003;21773;50.010;19.972;2022-09-09T12:34:22;18.00;18.00;18.00
35654;PMS1003;21773;50.010;19.972;2022-09-09T12:37:35;13.20;13.20;13.00
35654;PMS1003;21773;50.010;19.972;2022-09-09T12:40:41;13.00;13.00;13.00
35654;PMS1003;21773;50.010;19.972;2022-09-09T12:43:44;12.75;12.00;11.75
35654;PMS1003;21773;50.010;19.972;2022-09-09T12:46:49;17.50;17.00;17.00
35654;PMS1003;21773;50.010;19.972;2022-09-09T12:49:54;18.40;18.00;17.40
35654;PMS1003;21773;50.010;19.972;2022-09-09T12:52:58;15.40;15.40;15.00
35654;PMS1003;21773;50.010;19.972;2022-09-09T12:56:05;13.50;13.00;12.50
35654;PMS1003;21773;50.010;19.972;2022-09-09T12:59:17;13.00;13.00;13.00
35654;PMS1003;21773;50.010;19.972;2022-09-09T13:02:27;11.00;11.00;11.00
35654;PMS1003;21773;50.010;19.972;2022-09-09T13:05:34;15.00;15.00;14.20
35654;PMS1003;21773;50.010;19.972;2022-09-09T13:08:38;12.50;12.50;12.50
35654;PMS1003;21773;50.010;19.972;2022-09-09T13:11:42;13.40;13.40;13.00
35654;PMS1003;21773;50.010;19.972;2022-09-09T13:14:50;8.00;8.00;8.00
35654;PMS1003;21773;50.010;19.972;2022-09-09T13:17:58;17.00;17.00;16.40
35654;PMS1003;21773;50.010;19.972;2022-09-09T13:21:05;13.00;13.00;13.00
35654;PMS1003;21773;50.010;19.972;2022-09-09T13:24:21;15.00;15.00;15.00
35654;PMS1003;21773;50.010;19.972;2022-09-09T13:27:31;15.50;15.00;14.50
35654;PMS1003;21773;50.010;19.972;2022-09-09T13:30:36;16.00;16.00;16.00
35654;PMS1003;21773;50.010;19.972;2022-09-09T13:33:44;13.50;13.50;13.50
35654;PMS1003;21773;50.010;19.972;2022-09-09T13:36:47;12.50;12.50;12.25
35654;PMS1003;21773;50.010;19.972;2022-09-09T13:39:51;15.00;14.60;14.60
35654;PMS1003;21773;50.010;19.972;2022-09-09T13:42:56;12.00;12.00;11.40
35654;PMS1003;21773;50.010;19.972;2022-09-09T13:46:01;11.60;11.00;11.00
35654;PMS1003;21773;50.010;19.972;2022-09-09T13:49:19;14.00;14.00;14.00
35654;PMS1003;21773;50.010;19.972;2022-09-09T13:52:25;8.60;8.60;8.60
35654;PMS1003;21773;50.010;19.972;2022-09-09T13:55:33;12.60;12.60;12.00
35654;PMS1003;21773;50.010;19.972;2022-09-09T13:58:36;18.60;18.00;17.60
35654;PMS1003;21773;50.010;19.972;2022-09-09T14:01:39;24.40;23.40;22.00
35654;PMS1003;21773;50.010;19.972;2022-09-09T14:04:45;20.00;19.00;19.00
35654;PMS1003;21773;50.010;19.972;2022-09-09T14:07:49;17.00;17.00;16.80
35654;PMS1003;21773;50.010;19.972;2022-09-09T14:10:54;14.00;13.50;13.50
35654;PMS1003;21773;50.010;19.972;2022-09-09T14:13:58;17.00;17.00;17.00
35654;PMS1003;21773;50.010;19.972;2022-09-09T14:17:02;26.00;25.00;23.00
35654;PMS1003;21773;50.010;19.972;2022-09-09T14:20:10;16.00;16.00;16.00
35654;PMS1003;21773;50.010;19.972;2022-09-09T14:23:17;20.60;20.60;20.00
35654;PMS1003;21773;50.010;19.972;2022-09-09T14:26:20;18.00;18.00;18.00
35654;PMS1003;21773;50.010;19.972;2022-09-09T14:29:25;15.00;14.80;14.80
35654;PMS1003;21773;50.010;19.972;2022-09-09T14:32:28;17.40;17.00;17.00
35654;PMS1003;21773;50.010;19.972;2022-09-09T14:35:33;18.40;18.40;18.00
35654;PMS1003;21773;50.010;19.972;2022-09-09T14:38:38;16.50;16.50;16.00
35654;PMS1003;21773;50.010;19.972;2022-09-09T14:41:43;18.00;18.00;17.40
35654;PMS1003;21773;50.010;19.972;2022-09-09T14:44:47;16.25;16.25;15.75
35654;PMS1003;21773;50.010;19.972;2022-09-09T14:47:50;23.00;23.00;21.00
35654;PMS1003;21773;50.010;19.972;2022-09-09T14:50:55;21.40;20.40;20.00
35654;PMS1003;21773;50.010;19.972;2022-09-09T14:53:59;18.80;18.80;18.20
35654;PMS1003;21773;50.010;19.972;2022-09-09T14:57:03;18.60;18.60;18.00
35654;PMS1003;21773;50.010;19.972;2022-09-09T15:00:08;16.00;16.00;16.00
35654;PMS1003;21773;50.010;19.972;2022-09-09T15:03:12;17.00;17.00;17.00
35654;PMS1003;21773;50.010;19.972;2022-09-09T15:06:17;22.60;22.60;21.00
35654;PMS1003;21773;50.010;19.972;2022-09-09T15:09:22;19.50;19.50;18.50
35654;PMS1003;21773;50.010;19.972;2022-09-09T15:12:25;21.00;21.00;20.00
35654;PMS1003;21773;50.010;19.972;2022-09-09T15:15:28;19.00;19.00;19.00
35654;PMS1003;21773;50.010;19.972;2022-09-09T15:18:31;20.00;20.00;20.00
35654;PMS1003;21773;50.010;19.972;2022-09-09T15:21:37;26.00;25.25;23.00
35654;PMS1003;21773;50.010;19.972;2022-09-09T15:24:41;27.40;27.40;24.00
35654;PMS1003;21773;50.010;19.972;2022-09-09T15:27:44;26.00;25.50;23.00
35654;PMS1003;21773;50.010;19.972;2022-09-09T15:30:48;21.00;21.00;20.00
35654;PMS1003;21773;50.010;19.972;2022-09-09T15:33:53;23.75;23.75;22.00
35654;PMS1003;21773;50.010;19.972;2022-09-09T15:37:03;24.50;24.50;22.00
35654;PMS1003;21773;50.010;19.972;2022-09-09T15:40:08;31.80;30.80;26.40
35654;PMS1003;21773;50.010;19.972;2022-09-09T15:43:11;30.00;30.00;25.40
35654;PMS1003;21773;50.010;19.972;2022-09-09T15:46:22;29.00;28.40;24.40
35654;PMS1003;21773;50.010;19.972;2022-09-09T15:49:33;29.00;29.00;24.50
35654;PMS1003;21773;50.010;19.972;2022-09-09T15:52:38;30.00;30.00;25.60
35654;PMS1003;21773;50.010;19.972;2022-09-09T15:55:41;27.75;27.75;24.00
35654;PMS1003;21773;50.010;19.972;2022-09-09T15:58:45;30.00;30.00;25.40
35654;PMS1003;21773;50.010;19.972;2022-09-09T16:01:48;18.20;18.20;17.80
35654;PMS1003;21773;50.010;19.972;2022-09-09T16:04:53;33.40;32.00;27.00
35654;PMS1003;21773;50.010;19.972;2022-09-09T16:07:58;28.00;27.60;24.00
35654;PMS1003;21773;50.010;19.972;2022-09-09T16:11:05;34.75;32.25;27.50
35654;PMS1003;21773;50.010;19.972;2022-09-09T16:14:12;27.75;27.00;24.00
35654;PMS1003;21773;50.010;19.972;2022-09-09T16:17:17;31.00;30.00;26.00
35654;PMS1003;21773;50.010;19.972;2022-09-09T16:20:22;29.60;29.00;25.00
35654;PMS1003;21773;50.010;19.972;2022-09-09T16:23:27;32.40;31.40;27.00
35654;PMS1003;21773;50.010;19.972;2022-09-09T16:26:31;35.50;33.00;28.00
35654;PMS1003;21773;50.010;19.972;2022-09-09T16:29:36;26.50;26.50;23.50
35654;PMS1003;21773;50.010;19.972;2022-09-09T16:32:39;32.40;31.00;26.40
35654;PMS1003;21773;50.010;19.972;2022-09-09T16:35:43;30.60;30.00;26.00
35654;PMS1003;21773;50.010;19.972;2022-09-09T16:38:48;30.25;30.00;26.00
35654;PMS1003;21773;50.010;19.972;2022-09-09T16:41:55;37.40;33.80;28.80
35654;PMS1003;21773;50.010;19.972;2022-09-09T16:44:59;29.75;29.00;24.75
35654;PMS1003;21773;50.010;19.972;2022-09-09T16:48:02;31.40;30.40;26.00
35654;PMS1003;21773;50.010;19.972;2022-09-09T16:51:07;30.60;30.00;25.60
35654;PMS1003;21773;50.010;19.972;2022-09-09T16:54:17;29.00;29.00;24.20
35654;PMS1003;21773;50.010;19.972;2022-09-09T16:57:20;33.40;32.00;27.20
35654;PMS1003;21773;50.010;19.972;2022-09-09T17:00:23;30.60;30.00;26.00
35654;PMS1003;21773;50.010;19.972;2022-09-09T17:03:27;31.75;30.75;26.00
35654;PMS1003;21773;50.010;19.972;2022-09-09T17:06:32;37.75;34.00;28.75
35654;PMS1003;21773;50.010;19.972;2022-09-09T17:09:39;29.50;29.00;24.50
35654;PMS1003;21773;50.010;19.972;2022-09-09T17:12:43;32.67;30.67;26.67
35654;PMS1003;21773;50.010;19.972;2022-09-09T17:15:47;36.60;33.60;28.00
35654;PMS1003;21773;50.010;19.972;2022-09-09T17:18:51;30.40;30.00;25.40
35654;PMS1003;21773;50.010;19.972;2022-09-09T17:21:54;27.20;26.80;23.20
35654;PMS1003;21773;50.010;19.972;2022-09-09T17:25:19;34.00;32.00;27.40